LFBG 301030Z AUTO 06010KT 040V100 CAVOK 25/12 Q1015

ElémentsDécodage
LFBG Station météo située sur l'aérodrome de COGNAC Châteaubernard
301030Z émis le 30 du mois à 10h30 UTC
AUTO Bulletin édité par un automate
06010KT vent du 060°, 10 noeuds
040V100 vent de direction variable entre 040° et 100°
CAVOK Ceiling And Visibility OK
- Visibilité de 10 Km ou plus
- Pas de nuage au-dessous de 1500m ou au-dessous de l'altitude minimale du secteur la plus élevée (si>1500m) et absence de CB
- pas de temps présent significatif
25/12 température 25°C, point de rosée 12°C
 soit une humidité relative de 44%
Q1015 la pression au niveau de la mer (QNH) est de 1015 hPa